createdAt,value
2018-06-19T00:01:26.619Z,2
2018-06-19T00:04:26.724Z,1.8
2018-06-19T00:07:26.628Z,1.7
2018-06-19T00:10:26.836Z,1.7
2018-06-19T00:13:26.767Z,1.7
2018-06-19T00:16:26.706Z,1.7
2018-06-19T00:19:26.620Z,1.7
2018-06-19T00:22:26.814Z,1.8
2018-06-19T00:25:26.834Z,1.7
2018-06-19T00:28:26.814Z,1.8
2018-06-19T00:31:26.649Z,1.8
2018-06-19T00:34:26.759Z,1.8
2018-06-19T00:37:26.549Z,2.1
2018-06-19T00:40:26.829Z,1.7
2018-06-19T00:43:26.770Z,1.6
2018-06-19T00:46:26.587Z,1.7
2018-06-19T00:49:26.709Z,1.7
2018-06-19T00:52:26.667Z,1.6
2018-06-19T00:55:26.763Z,1.9
2018-06-19T00:58:26.584Z,1.8
2018-06-19T01:01:26.749Z,1.8
2018-06-19T01:04:26.690Z,1.8
2018-06-19T01:07:26.735Z,1.9
2018-06-19T01:10:26.691Z,1.7
2018-06-19T01:13:26.914Z,1.7
2018-06-19T01:16:26.598Z,1.7
2018-06-19T01:19:26.542Z,1.7
2018-06-19T01:22:26.755Z,1.7
2018-06-19T01:25:26.794Z,1.7
2018-06-19T01:28:26.585Z,1.9
2018-06-19T01:31:26.817Z,1.7
2018-06-19T01:34:26.671Z,1.7
2018-06-19T01:37:26.702Z,1.7
2018-06-19T01:40:26.645Z,1.7
2018-06-19T01:43:27.005Z,1.7
2018-06-19T01:46:26.598Z,1.7
2018-06-19T01:49:26.789Z,1.8
2018-06-19T01:52:26.685Z,1.7
2018-06-19T01:55:26.517Z,1.7
2018-06-19T01:58:26.741Z,1.8
2018-06-19T02:01:26.933Z,2
2018-06-19T02:04:26.577Z,1.7
2018-06-19T02:07:26.751Z,1.7
2018-06-19T02:10:26.651Z,1.8
2018-06-19T02:13:26.593Z,1.9
2018-06-19T02:16:26.670Z,1.7
2018-06-19T02:19:26.563Z,1.7
2018-06-19T02:22:26.734Z,1.8
2018-06-19T02:25:26.733Z,1.7
2018-06-19T02:28:26.753Z,1.9
2018-06-19T02:31:26.607Z,1.8
2018-06-19T02:34:26.577Z,1.8
2018-06-19T02:37:26.657Z,1.8
2018-06-19T02:40:26.655Z,1.7
2018-06-19T02:43:26.781Z,1.8
2018-06-19T02:46:26.621Z,2
2018-06-19T02:49:26.673Z,1.7
2018-06-19T02:52:26.660Z,1.7
2018-06-19T02:55:26.579Z,1.7
2018-06-19T02:58:26.809Z,1.8
2018-06-19T03:01:26.635Z,1.8
2018-06-19T03:04:26.827Z,1.8
2018-06-19T03:07:26.806Z,1.7
2018-06-19T03:10:26.615Z,1.8
2018-06-19T03:13:26.595Z,1.7
2018-06-19T03:16:26.797Z,1.7
2018-06-19T03:19:26.487Z,1.6
2018-06-19T03:22:26.635Z,1.8
2018-06-19T03:25:26.594Z,1.7
2018-06-19T03:28:26.638Z,1.8
2018-06-19T03:31:26.647Z,1.6
2018-06-19T03:34:26.572Z,1.8
2018-06-19T03:37:26.859Z,1.8
2018-06-19T03:40:26.614Z,1.6
2018-06-19T03:43:26.676Z,1.8
2018-06-19T03:46:26.646Z,1.7
2018-06-19T03:49:26.601Z,1.6
2018-06-19T03:52:26.715Z,1.7
2018-06-19T03:55:26.589Z,1.7
2018-06-19T03:58:27.014Z,1.7
2018-06-19T04:01:36.827Z,2.2
2018-06-19T04:04:26.473Z,1.9
2018-06-19T04:07:26.711Z,1.7
2018-06-19T04:10:27.083Z,1.8
2018-06-19T04:13:26.472Z,1.7
2018-06-19T04:16:26.544Z,1.6
2018-06-19T04:19:26.753Z,1.6
2018-06-19T04:22:26.631Z,1.7
2018-06-19T04:25:26.682Z,1.7
2018-06-19T04:28:26.514Z,1.9
2018-06-19T04:31:26.495Z,1.7
2018-06-19T04:34:26.532Z,1.8
2018-06-19T04:37:26.585Z,2
2018-06-19T04:40:26.708Z,1.8
2018-06-19T04:43:26.738Z,1.8
2018-06-19T04:46:26.622Z,1.7
2018-06-19T04:49:26.870Z,1.7
2018-06-19T04:52:26.555Z,1.7
2018-06-19T04:55:26.527Z,1.6
2018-06-19T04:58:26.703Z,1.9
2018-06-19T05:01:26.520Z,1.6
2018-06-19T05:04:26.464Z,1.6
2018-06-19T05:07:26.614Z,1.8
2018-06-19T05:10:26.591Z,1.6
2018-06-19T05:13:26.582Z,1.8
2018-06-19T05:16:26.644Z,1.7
2018-06-19T05:19:26.643Z,1.7
2018-06-19T05:22:26.647Z,1.7
2018-06-19T05:25:26.720Z,1.7
2018-06-19T05:28:26.655Z,1.7
2018-06-19T05:31:26.470Z,1.7
2018-06-19T05:34:26.703Z,1.7
2018-06-19T05:37:26.478Z,1.7
2018-06-19T05:40:26.626Z,1.7
2018-06-19T05:43:26.531Z,1.7
2018-06-19T05:46:26.612Z,1.6
2018-06-19T05:49:26.578Z,1.6
2018-06-19T05:52:26.679Z,1.6
2018-06-19T05:55:26.630Z,1.7
2018-06-19T05:58:26.424Z,1.6
2018-06-19T06:01:26.603Z,1.7
2018-06-19T06:04:26.701Z,1.6
2018-06-19T06:07:26.615Z,1.7
2018-06-19T06:10:27.082Z,1.8
2018-06-19T06:13:26.813Z,1.7
2018-06-19T06:16:27.513Z,1.6
2018-06-19T06:19:26.702Z,1.7
2018-06-19T06:22:26.754Z,1.7
2018-06-19T06:25:26.709Z,2.5
2018-06-19T06:28:26.597Z,1.8
2018-06-19T06:31:28.073Z,2.4
2018-06-19T06:34:26.575Z,2.5
2018-06-19T06:37:26.785Z,3.5
2018-06-19T06:40:26.667Z,2.8
2018-06-19T06:43:26.687Z,2.8
2018-06-19T06:46:26.796Z,1.9
2018-06-19T06:49:26.671Z,1.7
2018-06-19T06:52:26.586Z,2.2
2018-06-19T06:55:26.644Z,1.8
2018-06-19T06:58:26.599Z,1.8
2018-06-19T07:01:26.659Z,1.8
2018-06-19T07:04:26.536Z,2.4
2018-06-19T07:07:26.761Z,2.2
2018-06-19T07:10:26.534Z,1.7
2018-06-19T07:13:27.284Z,1.8
2018-06-19T07:16:26.808Z,2.1
2018-06-19T07:19:27.129Z,3.2
2018-06-19T07:22:27.091Z,1.7
2018-06-19T07:25:26.539Z,1.6
2018-06-19T07:28:26.563Z,2.1
2018-06-19T07:31:26.415Z,1.7
2018-06-19T07:34:26.671Z,1.8
2018-06-19T07:37:26.685Z,1.8
2018-06-19T07:40:26.668Z,1.8
2018-06-19T07:43:26.791Z,1.8
2018-06-19T07:46:26.738Z,2.1
2018-06-19T07:49:27.097Z,1.8
2018-06-19T07:52:26.859Z,1.8
2018-06-19T07:55:27.297Z,1.7
2018-06-19T07:58:26.608Z,1.7
2018-06-19T08:01:26.609Z,1.9
2018-06-19T08:04:26.663Z,1.8
2018-06-19T08:07:26.623Z,1.8
2018-06-19T08:10:26.670Z,1.6
2018-06-19T08:13:27.202Z,1.7
2018-06-19T08:16:26.650Z,1.7
2018-06-19T08:19:26.574Z,1.8
2018-06-19T08:22:26.551Z,2.2
2018-06-19T08:25:26.797Z,1.8
2018-06-19T08:28:26.491Z,1.7
2018-06-19T08:31:26.732Z,2.1
2018-06-19T08:34:26.507Z,1.7
2018-06-19T08:37:26.416Z,1.9
2018-06-19T08:40:26.392Z,1.7
2018-06-19T08:43:26.480Z,1.6
2018-06-19T08:46:26.719Z,1.7
2018-06-19T08:49:26.618Z,1.8
2018-06-19T08:52:26.457Z,1.7
2018-06-19T08:55:26.906Z,1.6
2018-06-19T08:58:26.834Z,1.8
2018-06-19T09:01:26.616Z,2
2018-06-19T09:04:26.836Z,1.6
2018-06-19T09:07:26.593Z,1.7
2018-06-19T09:10:26.489Z,2.1
2018-06-19T09:13:27.104Z,2.3
2018-06-19T09:16:26.359Z,1.6
2018-06-19T09:19:26.545Z,1.6
2018-06-19T09:22:26.650Z,1.7
2018-06-19T09:25:26.633Z,1.8
2018-06-19T09:28:26.527Z,1.7
2018-06-19T09:31:27.766Z,2.1
2018-06-19T09:34:26.417Z,1.7
2018-06-19T09:37:26.518Z,1.7
2018-06-19T09:40:26.704Z,1.6
2018-06-19T09:43:26.719Z,1.8
2018-06-19T09:46:26.657Z,1.8
2018-06-19T09:49:26.478Z,1.7
2018-06-19T09:52:27.059Z,1.7
2018-06-19T09:55:26.372Z,1.7
2018-06-19T09:58:27.219Z,2.8
2018-06-19T10:01:26.602Z,3.7
2018-06-19T10:04:26.536Z,1.9
2018-06-19T10:07:26.732Z,3.1
2018-06-19T10:10:26.699Z,4.6
2018-06-19T10:13:26.526Z,2.5
2018-06-19T10:16:26.428Z,2.9
2018-06-19T10:19:27.207Z,2.8
2018-06-19T10:22:26.620Z,2.9
2018-06-19T10:25:26.598Z,3.1
2018-06-19T10:28:26.691Z,2.3
2018-06-19T10:31:26.405Z,3
2018-06-19T10:34:26.648Z,3.1
2018-06-19T10:37:26.610Z,4
2018-06-19T10:40:26.540Z,4
2018-06-19T10:43:26.413Z,6.1
2018-06-19T10:46:26.539Z,3.2
2018-06-19T10:49:26.376Z,3.2
2018-06-19T10:52:26.782Z,3.4
2018-06-19T10:55:26.493Z,3.1
2018-06-19T10:58:26.444Z,2.3
2018-06-19T11:01:26.362Z,3.2
2018-06-19T11:04:26.436Z,3.2
2018-06-19T11:07:26.379Z,2.2
2018-06-19T11:10:26.603Z,2.4
2018-06-19T11:13:26.530Z,2.7
2018-06-19T11:16:26.388Z,2.1
2018-06-19T11:19:26.454Z,2.5
2018-06-19T11:22:26.399Z,2.2
2018-06-19T11:25:26.540Z,2.5
2018-06-19T11:28:26.566Z,2.3
2018-06-19T11:31:26.505Z,2
2018-06-19T11:34:26.540Z,2.2
2018-06-19T11:37:26.584Z,2.8
2018-06-19T11:40:26.651Z,2.2
2018-06-19T11:43:27.088Z,2.8
2018-06-19T11:46:26.581Z,2
2018-06-19T11:49:26.608Z,2
2018-06-19T11:52:26.524Z,2.2
2018-06-19T11:55:26.453Z,2.5
2018-06-19T11:58:26.553Z,2
2018-06-19T12:01:26.477Z,2.1
2018-06-19T12:04:26.426Z,2
2018-06-19T12:07:26.632Z,2.2
2018-06-19T12:10:26.502Z,2.7
2018-06-19T12:13:26.562Z,2.1
2018-06-19T12:16:26.647Z,2.2
2018-06-19T12:19:26.434Z,2.1
2018-06-19T12:22:26.469Z,2.3
2018-06-19T12:25:26.555Z,1.9
2018-06-19T12:28:26.513Z,2.1
2018-06-19T12:31:26.423Z,2.1
2018-06-19T12:34:26.427Z,2.1
2018-06-19T12:37:27.270Z,1.9
2018-06-19T12:40:26.417Z,1.9
2018-06-19T12:43:26.675Z,2
2018-06-19T12:46:26.335Z,1.9
2018-06-19T12:49:26.455Z,1.8
2018-06-19T12:52:26.553Z,2.9
2018-06-19T12:55:26.484Z,2.1
2018-06-19T12:58:26.669Z,1.8
2018-06-19T13:01:26.465Z,1.9
2018-06-19T13:04:26.482Z,2.1
2018-06-19T13:07:26.569Z,2.1
2018-06-19T13:10:26.518Z,1.9
2018-06-19T13:13:26.375Z,1.8
2018-06-19T13:16:26.569Z,1.8
2018-06-19T13:19:26.534Z,1.9
2018-06-19T13:22:26.484Z,1.8
2018-06-19T13:25:26.533Z,1.9
2018-06-19T13:28:26.534Z,2.4
2018-06-19T13:31:26.296Z,1.7
2018-06-19T13:34:26.399Z,1.8
2018-06-19T13:37:26.616Z,1.8
2018-06-19T13:40:26.536Z,2.2
2018-06-19T13:43:26.566Z,1.7
2018-06-19T13:46:26.445Z,1.8
2018-06-19T13:49:26.987Z,1.9
2018-06-19T13:52:26.609Z,2
2018-06-19T13:55:26.379Z,1.9
2018-06-19T13:58:26.565Z,1.8
2018-06-19T14:01:26.472Z,1.9
2018-06-19T14:04:26.320Z,1.8
2018-06-19T14:07:27.860Z,1.8
2018-06-19T14:10:26.635Z,1.8
2018-06-19T14:13:26.338Z,1.9
2018-06-19T14:16:26.518Z,1.8
2018-06-19T14:19:27.423Z,1.9
2018-06-19T14:22:26.308Z,1.8
2018-06-19T14:25:26.441Z,1.8
2018-06-19T14:28:26.354Z,1.9
2018-06-19T14:31:26.390Z,2.4
2018-06-19T14:34:26.565Z,1.8
2018-06-19T14:37:26.522Z,1.8
2018-06-19T14:40:26.331Z,1.9
2018-06-19T14:43:26.373Z,1.9
2018-06-19T14:46:26.542Z,1.7
2018-06-19T14:49:26.493Z,1.9
2018-06-19T14:52:26.551Z,1.8
2018-06-19T14:55:26.251Z,1.8
2018-06-19T14:58:26.611Z,1.7
2018-06-19T15:01:26.669Z,1.9
2018-06-19T15:04:26.353Z,1.8
2018-06-19T15:07:26.384Z,1.7
2018-06-19T15:10:26.863Z,1.7
2018-06-19T15:13:26.364Z,1.8
2018-06-19T15:16:26.504Z,1.8
2018-06-19T15:19:26.374Z,1.8
2018-06-19T15:22:26.410Z,2.2
2018-06-19T15:25:26.384Z,1.7
2018-06-19T15:28:26.376Z,2.4
2018-06-19T15:31:26.401Z,1.7
2018-06-19T15:34:26.412Z,1.7
2018-06-19T15:37:26.445Z,1.9
2018-06-19T15:40:26.563Z,1.7
2018-06-19T15:43:26.449Z,1.8
2018-06-19T15:46:26.379Z,1.7
2018-06-19T15:49:26.462Z,1.7
2018-06-19T15:52:26.581Z,1.7
2018-06-19T15:55:26.446Z,2
2018-06-19T15:58:26.555Z,1.6
2018-06-19T16:01:26.425Z,1.9
2018-06-19T16:04:26.677Z,3.7
2018-06-19T16:07:26.511Z,6.3
2018-06-19T16:10:26.698Z,2.6
2018-06-19T16:13:26.983Z,2.5
2018-06-19T16:16:26.735Z,2.6
2018-06-19T16:19:26.376Z,2.3
2018-06-19T16:22:26.633Z,4.5
2018-06-19T16:25:26.335Z,5.2
2018-06-19T16:28:26.470Z,3.6
2018-06-19T16:31:26.549Z,2.8
2018-06-19T16:34:26.424Z,2.5
2018-06-19T16:37:26.435Z,2.5
2018-06-19T16:40:26.390Z,3.8
2018-06-19T16:43:26.456Z,2.7
2018-06-19T16:46:26.529Z,2.2
2018-06-19T16:49:26.701Z,2.3
2018-06-19T16:52:26.487Z,3.2
2018-06-19T16:55:26.975Z,2.2
2018-06-19T16:58:26.430Z,1.9
2018-06-19T17:01:27.153Z,2.8
2018-06-19T17:04:26.493Z,2.3
2018-06-19T17:07:26.951Z,2.1
2018-06-19T17:10:26.491Z,3.1
2018-06-19T17:13:26.441Z,2.5
2018-06-19T17:16:26.310Z,3.6
2018-06-19T17:19:26.262Z,3.1
2018-06-19T17:22:26.447Z,3.5
2018-06-19T17:25:26.394Z,2.2
2018-06-19T17:28:26.308Z,3.5
2018-06-19T17:31:26.626Z,4.1
2018-06-19T17:34:26.262Z,3.6
2018-06-19T17:37:26.410Z,2.7
2018-06-19T17:40:26.391Z,4.3
2018-06-19T17:43:26.513Z,4.3
2018-06-19T17:46:26.414Z,3.1
2018-06-19T17:49:26.494Z,2.5
2018-06-19T17:52:27.573Z,3.6
2018-06-19T17:55:26.512Z,3.9
2018-06-19T17:58:26.650Z,2.3
2018-06-19T18:01:26.599Z,3.7
2018-06-19T18:04:26.442Z,2.9
2018-06-19T18:07:26.720Z,3
2018-06-19T18:10:26.545Z,2.1
2018-06-19T18:13:26.831Z,4.2
2018-06-19T18:16:26.993Z,2.1
2018-06-19T18:19:26.334Z,3
2018-06-19T18:22:26.326Z,1.8
2018-06-19T18:25:26.240Z,3
2018-06-19T18:28:26.888Z,2.1
2018-06-19T18:31:26.248Z,2.7
2018-06-19T18:34:26.276Z,3.4
2018-06-19T18:37:26.974Z,3
2018-06-19T18:40:26.889Z,2
2018-06-19T18:43:26.228Z,2
2018-06-19T18:46:26.390Z,2.6
2018-06-19T18:49:26.760Z,2.2
2018-06-19T18:52:26.261Z,2.6
2018-06-19T18:55:26.461Z,3.2
2018-06-19T18:58:26.490Z,2.1
2018-06-19T19:01:26.423Z,2.1
2018-06-19T19:04:26.507Z,2.5
2018-06-19T19:07:26.436Z,4
2018-06-19T19:10:26.299Z,2.6
2018-06-19T19:13:26.383Z,3.6
2018-06-19T19:16:26.363Z,4.9
2018-06-19T19:19:26.366Z,3.3
2018-06-19T19:22:26.329Z,3
2018-06-19T19:25:26.421Z,3.6
2018-06-19T19:28:26.251Z,2.8
2018-06-19T19:31:26.520Z,3.3
2018-06-19T19:34:26.292Z,5.2
2018-06-19T19:37:26.294Z,2.7
2018-06-19T19:40:26.340Z,4.2
2018-06-19T19:43:26.296Z,7.3
2018-06-19T19:46:26.359Z,3.3
2018-06-19T19:49:26.309Z,2.3
2018-06-19T19:52:26.400Z,3.3
2018-06-19T19:55:26.398Z,4.3
2018-06-19T19:58:26.758Z,3.2
2018-06-19T20:01:26.419Z,3.3
2018-06-19T20:04:26.388Z,2.8
2018-06-19T20:07:26.651Z,2.6
2018-06-19T20:10:26.604Z,2.3
2018-06-19T20:13:26.396Z,3.1
2018-06-19T20:16:26.496Z,2.1
2018-06-19T20:19:26.599Z,2.9
2018-06-19T20:22:26.447Z,2.1
2018-06-19T20:25:26.823Z,2.5
2018-06-19T20:28:26.544Z,2.5
2018-06-19T20:31:26.566Z,2
2018-06-19T20:34:26.589Z,2.2
2018-06-19T20:37:26.602Z,2.6
2018-06-19T20:40:26.631Z,2
2018-06-19T20:43:26.541Z,2.5
2018-06-19T20:46:27.531Z,3.3
2018-06-19T20:49:26.530Z,2.2
2018-06-19T20:52:26.628Z,1.9
2018-06-19T20:55:26.713Z,1.8
2018-06-19T20:58:26.346Z,3.1
2018-06-19T21:01:26.610Z,2.6
2018-06-19T21:04:26.470Z,1.9
2018-06-19T21:07:26.361Z,2.2
2018-06-19T21:10:26.575Z,2.3
2018-06-19T21:13:26.233Z,1.9
2018-06-19T21:16:26.402Z,1.8
2018-06-19T21:19:26.486Z,2.5
2018-06-19T21:22:26.306Z,2.1
2018-06-19T21:25:26.323Z,2.5
2018-06-19T21:28:26.442Z,1.7
2018-06-19T21:31:26.393Z,1.9
2018-06-19T21:34:26.497Z,1.8
2018-06-19T21:37:26.627Z,2.1
2018-06-19T21:40:26.529Z,1.8
2018-06-19T21:43:26.233Z,1.7
2018-06-19T21:46:26.511Z,1.7
2018-06-19T21:49:26.183Z,1.8
2018-06-19T21:52:26.426Z,2
2018-06-19T21:55:26.368Z,1.6
2018-06-19T21:58:26.384Z,2.9
2018-06-19T22:01:26.211Z,1.7
2018-06-19T22:04:26.279Z,2.3
2018-06-19T22:07:26.569Z,1.8
2018-06-19T22:10:26.503Z,2.4
2018-06-19T22:13:26.311Z,2.1
2018-06-19T22:16:26.379Z,1.9
2018-06-19T22:19:26.546Z,2.1
2018-06-19T22:22:26.347Z,1.7
2018-06-19T22:25:26.422Z,1.8
2018-06-19T22:28:26.441Z,1.8
2018-06-19T22:31:26.618Z,1.8
2018-06-19T22:34:26.581Z,1.9
2018-06-19T22:37:26.247Z,1.7
2018-06-19T22:40:26.427Z,2.1
2018-06-19T22:43:26.191Z,1.8
2018-06-19T22:46:26.181Z,1.9
2018-06-19T22:49:26.382Z,2.1
2018-06-19T22:52:26.255Z,1.7
2018-06-19T22:55:26.277Z,1.8
2018-06-19T22:58:26.421Z,1.6
2018-06-19T23:01:26.230Z,1.7
2018-06-19T23:04:26.247Z,1.8
2018-06-19T23:07:26.278Z,2.1
2018-06-19T23:10:26.453Z,1.6
2018-06-19T23:13:36.373Z,1.7
2018-06-19T23:16:26.203Z,1.9
2018-06-19T23:19:26.362Z,1.7
2018-06-19T23:22:26.355Z,1.7
2018-06-19T23:25:26.263Z,1.8
2018-06-19T23:28:26.453Z,1.7
2018-06-19T23:31:26.351Z,1.7
2018-06-19T23:34:26.203Z,1.7
2018-06-19T23:37:26.220Z,2.4
2018-06-19T23:40:26.332Z,1.7
2018-06-19T23:43:26.245Z,1.7
2018-06-19T23:46:26.161Z,1.9
2018-06-19T23:49:26.314Z,1.6
2018-06-19T23:52:26.210Z,1.7
2018-06-19T23:55:26.206Z,1.6
2018-06-19T23:58:26.304Z,1.7
